Immagine casuale
Testata Regione Lazio ARSIAL SIARL

Ultima Misura Rilevata

Temperatura, Umidità, Pioggia, Pressione Radiazione Solare, Venti, Evapotraspirazione, ecc.
Temperature diurne e notturne Direzione vento Legenda
Prov Stazione Data TMin TMed TMax UMed Pioggia PMed
FR ALATRI Basciano 01/04/2020 0,2 6,1 13,5 57 0 1.011
FR ALVITO Az. Ist. S. Benedetto 01/04/2020 -0,8 5,1 10,7 56 0,4 1.016
FR ANAGNI La Gloria 01/04/2020 1 6,6 13,4 64 0 1.015
FR ARPINO Vigne Piane 01/04/2020 0,2 5,2 11,8 54 0,4 1.013
FR BOVILLE ERNICA Sasso 01/04/2020 1,6 7,1 14,1 61 0 1.015
FR CECCANO C.da Passo del Cardinale 01/04/2020 0,1 7,3 13,9 66 0 ----
FR ESPERIA Modale 01/04/2020 1,9 6,8 13,7 68 3 1.012
FR PASTENA Acero 01/04/2020 0,9 6,3 13,6 69 1,2 1.013
FR PIGLIO Civitella 01/04/2020 0,4 6,6 14,1 62 2,6 1.014
FR PONTECORVO Melfi di Sotto 01/04/2020 1,3 7,2 14,6 64 1 ----
FR S. ELIA FIUMERAPIDO Portella 01/04/2020 1,3 7,1 13,6 56 0,4 1.015
FR S. GIORGIO A LIRI Porto 01/04/2020 1,4 7,2 14,8 65 1,2 1.013
FR SGURGOLA Campo Lungo 01/04/2020 1,6 7,5 14,2 66 0 ----
FR VALLECORSA Serbatoio comunale 01/04/2020 0,9 5,8 13,6 71 3,2 1.014
LT APRILIA Le Ferriere 01/04/2020 2 8,4 14,3 57 0 1.014
LT CISTERNA B.go Carso 01/04/2020 1,7 7,8 12,8 64 0 ----
LT CISTERNA Doganella di Ninfa 01/04/2020 1,9 8,4 14,7 60 0 1.015
LT CORI Portone 01/04/2020 2,5 8,6 15,1 59 0 1.014
LT FONDI Capratica 01/04/2020 3,9 8,9 15,2 68 0 1.016
LT FORMIA Loc. Gianola 01/04/2020 3,6 8,3 13,6 62 2,4 ----
LT ITRI Valle Quercia 01/04/2020 4 7,8 12,5 64 0 1.015
LT MAENZA Casacotta 01/04/2020 4 8,3 15,4 64 3,2 1.012
LT MINTURNO Pulcherini 01/04/2020 3,3 8,1 14,3 56 1,4 1.015
LT PONTINIA Cotarda 01/04/2020 3,1 9,1 15,8 65 0 1.013
LT SABAUDIA Acquaviva 01/04/2020 5 8,8 13,4 64 0 1.014
LT SONNINO Frasso 01/04/2020 5,8 9,7 15,6 60 0 1.015
RI ACCUMOLI Terracino 01/04/2020 -5,4 -3,3 1 78 5,5 1.020
RI BORGOVELINO Ponte Basso 01/04/2020 0 4,4 11,1 51 0 1.015
RI CANTALUPO S. Francesco 01/04/2020 -1,6 5,3 10,8 50 0 ----
RI CASTEL DI TORA Monte di Tora 01/04/2020 1,1 4,9 11,9 49 0 1.011
RI CASTELNUOVO FARFA C. Spadone 01/04/2020 1,1 7,2 12,3 42 0,2 ----
RI CONFIGNI Portella 01/04/2020 0,1 5,2 11,6 50 0 1.016
RI FARA SABINA Canneto 01/04/2020 2,8 7,7 14,5 41 0 1.014
RI FARA SABINA Sant'Andrea 01/04/2020 2,1 7,3 13,3 42 0 ----
RI MONTELEONE S. Prato Camino 01/04/2020 -0,2 5,8 14,6 50 0 1.017
RI MONTOPOLI IN SABINA Colle Arcone 01/04/2020 1,3 6,3 12,4 55 0 ----
RI MONTOPOLI IN SABINA Villa Caprola 01/04/2020 2,3 7,6 14,6 59 0 ----
RI POGGIO CATINO Pastine 01/04/2020 0,1 5,8 12,5 50 0 ----
RI POGGIO NATIVO Casali 01/04/2020 1,9 5,3 10,3 49 0 ----
RI RIETI Piana di Rieti 01/04/2020 -3,3 5,3 12,6 51 0 1.018
RI SCANDRIGLIA Ponticelli 01/04/2020 1,4 5,9 11,4 53 0 ----
RM AGOSTA La Cisterna 01/04/2020 0,1 5,4 14,4 54 0 1.016
RM BRACCIANO Prato Pianciano 01/04/2020 0,8 6,4 12,1 49 0 1.013
RM CANALE MONTERANO Monte Virginio 01/04/2020 N.D. N.D. N.D. N.D. N.D. N.D.
RM CERVETERI Campo di Mare 01/04/2020 5 10,5 16,8 39 0 ----
RM CIVITELLA S.PAOLO Le Cese 01/04/2020 -0,4 5,8 12,9 53 0 1.015
RM FIUMICINO Maccarese 01/04/2020 -0,1 8,3 16 51 0 1.015
RM FIUMICINO Testa di Lepre 01/04/2020 2,7 7,7 14,4 43 0 ----
RM FORMELLO Perazzeta 01/04/2020 2,9 7 12 46 0 ----
RM FRASCATI Prata Porci 01/04/2020 0,2 6,4 14 52 0 1.016
RM GENAZZANO Coop. La Sonnina 01/04/2020 0,8 6,4 12,8 62 0 1.016
RM GROTTAFERRATA Valle Marciana 01/04/2020 -0,1 6,4 12,8 52 0 1.015
RM LADISPOLI Palo Laziale 01/04/2020 3,3 8,4 13,9 42 0 1.016
RM LICENZA Colle Franco 01/04/2020 -0,5 5,8 14,8 52 0 1.012
RM MARCELLINA V. Campetella 01/04/2020 1 7,1 13,2 51 0 ----
RM MARINO Gotto d'Oro 01/04/2020 1,7 6,9 12,8 47 0 1.017
RM MONTECOMPATRI Colle Mattia 01/04/2020 -0,8 6,3 13,9 54 0 1.017
RM MONTECOMPATRI Pantano Borghese 01/04/2020 -1,2 7 15,5 56 0 1.013
RM MONTELIBRETTI Bruciati 01/04/2020 -0,4 7,5 14,3 46 0 ----
RM MONTEPORZIO Camaldoli 01/04/2020 -1,6 3,8 10,2 59 0 1.016
RM MONTEROTONDO Grotta Marozza 01/04/2020 1,3 7 13,3 48 0 1.015
RM PALOMBARA Fonte Grande 01/04/2020 -1,7 6,3 13,4 52 0 ----
RM ROMA Capocotta 01/04/2020 N.D. N.D. N.D. N.D. N.D. ----
RM ROMA Ponte di Nona 01/04/2020 3 7,8 13,8 49 0 1.017
RM ROMA Via Lanciani 38 01/04/2020 4,9 8,6 13,6 40 0 1.014
RM S. GREGORIO C. Faustiniano 01/04/2020 N.D. N.D. N.D. N.D. N.D. N.D.
RM VELLETRI Cantina Sperimentale 01/04/2020 2,1 7,1 13,5 56 0 1.014
RM VELLETRI Prato Lungo 01/04/2020 3,8 8,1 14,1 52 0 ----
RM ZAGAROLO Santa Apollara 01/04/2020 0 6,6 13,3 55 0 ----
VT ACQUAPENDENTE Falconiera 01/04/2020 -1,2 3,7 9,5 51 0 1.017
VT BAGNOREGIO Castell Cellesi 01/04/2020 1,1 4,2 8,3 48 0 ----
VT BASSANO R. Piano Mola 01/04/2020 -0,3 4,7 12,9 53 0 1.012
VT BLERA Puntoni 01/04/2020 -1,4 4,9 10,6 53 0 1.016
VT BOLSENA Capone 01/04/2020 0,3 4,9 11 47 0 1.016
VT BOLSENA Rentica 01/04/2020 0,5 4,8 10,2 43 0 ----
VT CANINO Diga Timone 01/04/2020 -0,8 6,5 12,9 46 0 1.017
VT CANINO Pianacce 01/04/2020 0,3 6,9 13,3 44 0 1.017
VT CANINO San Valeriano 01/04/2020 -0,3 5,5 11 49 0 ----
VT CELLENO Acquaforte 01/04/2020 1 4,4 9 54 0 ----
VT CORCHIANO Pantalone 01/04/2020 0,8 6,1 11,9 49 0 1.015
VT FARNESE Gressa 01/04/2020 0 4,7 9,8 45 0 ----
VT FARNESE Pian di Sala 01/04/2020 -0,2 3,9 9,6 52 0 ----
VT GROTTE DI CASTRO Borghetto 01/04/2020 0,3 5,1 11,3 48 0 1.018
VT GROTTE DI CASTRO Purgatorio 01/04/2020 -1,2 3,4 9,8 54 0 1.017
VT LATERA Centro Florovivaistico 01/04/2020 0,3 4,7 10,7 47 0 1.016
VT MONTALTO Le Murelle 01/04/2020 0 7,6 13,9 45 0 1.018
VT MONTALTO Pescia Romana 01/04/2020 1,9 7,9 13,3 43 0 1.016
VT MONTEFIASCONE Commenda 01/04/2020 1 5,2 10,2 50 0 ----
VT RONCIGLIONE Ponterotto 01/04/2020 1,8 5,6 10,3 41 0 ----
VT SORIANO CIMINO Pantane 01/04/2020 -2,2 4,7 10,4 53 0 1.015
VT SORIANO CIMINO Poggio di Chia 01/04/2020 0,4 4,8 10,2 52 0,2 ----
VT TARQUINIA Portaccia 01/04/2020 1,1 7,7 13,7 48 0 ----
VT TUSCANIA Montebello 01/04/2020 3,5 7,4 12,5 48 0 ----
VT VETRALLA Marchionato 01/04/2020 -1,2 5,1 10,1 47 0 ----
VT VITERBO Pisello 01/04/2020 1,2 5,1 10,1 46 0 ----
N.D. = Dati Non Disponibili
---- = Sensore non presente

Le misure esposte sono grezze, ovvero non sono state validate.